Time;durP1;ratioP1;P1;durP2;ratioP2;P2;SDS_P1;SDS_P2;PMS_P1;PMS_P2;Temp;Humidity;BMP_temperature;BMP_pressure;BME280_temperature;BME280_humidity;BME280_pressure;Samples;Min_cycle;Max_cycle;Signal;HPM_P1;HPM_P2
2022/07/05 00:01:56;;;;;;;17.60;5.93;;;;;;;14.35;100.00;101962.25;5053697;28;20025;-64
2022/07/05 00:04:21;;;;;;;16.45;5.47;;;;;;;14.33;100.00;101970.22;5053699;28;20078;-64
2022/07/05 00:09:31;;;;;;;16.60;5.53;;;;;;;14.17;100.00;101969.22;5050140;28;20399;-64
2022/07/05 00:11:56;;;;;;;16.42;5.90;;;;;;;14.15;100.00;101962.13;5053556;28;20017;-65
2022/07/05 00:14:22;;;;;;;16.55;5.90;;;;;;;14.17;100.00;101960.34;5057990;28;20056;-64
2022/07/05 00:16:49;;;;;;;16.52;5.90;;;;;;;14.07;100.00;101947.00;5061244;28;20033;-64
2022/07/05 00:19:14;;;;;;;18.80;6.13;;;;;;;14.04;100.00;101952.28;5062905;28;20035;-63
2022/07/05 00:21:40;;;;;;;18.95;6.00;;;;;;;13.89;100.00;101953.06;5054744;28;20036;-66
2022/07/05 00:24:05;;;;;;;17.00;6.07;;;;;;;13.89;100.00;101955.72;5053403;28;20082;-64
2022/07/05 00:26:30;;;;;;;17.70;6.38;;;;;;;13.91;100.00;101953.09;5053178;28;20109;-66
2022/07/05 00:28:56;;;;;;;18.63;6.20;;;;;;;13.88;100.00;101951.28;5053024;28;20028;-65
2022/07/05 00:31:21;;;;;;;17.40;6.45;;;;;;;14.04;100.00;101948.75;5053451;28;20032;-66
2022/07/05 00:33:46;;;;;;;18.52;6.45;;;;;;;13.98;100.00;101951.34;5053018;28;20032;-64
2022/07/05 00:36:12;;;;;;;19.42;6.63;;;;;;;13.91;100.00;101956.63;5052943;28;20028;-65
2022/07/05 00:38:37;;;;;;;18.30;6.63;;;;;;;13.86;100.00;101947.72;5053198;28;20502;-64
2022/07/05 00:41:02;;;;;;;19.10;6.35;;;;;;;13.79;100.00;101953.88;5053178;28;20033;-66
2022/07/05 00:43:28;;;;;;;19.23;6.80;;;;;;;13.74;100.00;101952.94;5052742;28;20052;-65
2022/07/05 00:45:53;;;;;;;18.85;6.38;;;;;;;13.65;100.00;101956.38;5052898;28;20438;-65
2022/07/05 00:48:19;;;;;;;17.40;6.25;;;;;;;13.61;100.00;101943.94;5052741;28;20029;-64
2022/07/05 00:50:44;;;;;;;19.00;6.38;;;;;;;13.55;100.00;101943.91;5052739;28;20033;-66
2022/07/05 00:53:09;;;;;;;17.83;6.43;;;;;;;13.45;100.00;101950.88;5052852;28;20025;-64
2022/07/05 00:55:35;;;;;;;17.35;6.50;;;;;;;13.36;100.00;101954.34;5052404;28;20043;-66
2022/07/05 00:58:00;;;;;;;18.27;6.93;;;;;;;13.41;100.00;101955.28;5052919;28;20032;-66
2022/07/05 01:00:26;;;;;;;18.08;6.63;;;;;;;13.43;100.00;101949.97;5052473;28;20032;-66
2022/07/05 01:02:51;;;;;;;18.60;6.70;;;;;;;13.50;100.00;101954.47;5052484;28;20025;-68
2022/07/05 01:05:17;;;;;;;19.00;6.82;;;;;;;13.42;100.00;101954.38;5052667;28;20099;-65
2022/07/05 01:07:43;;;;;;;19.05;7.30;;;;;;;13.36;100.00;101949.03;5052427;28;20476;-66
2022/07/05 01:10:09;;;;;;;18.85;6.82;;;;;;;13.31;100.00;101957.78;5052464;28;20081;-66
2022/07/05 01:12:37;;;;;;;18.38;7.38;;;;;;;13.14;100.00;101958.50;5051804;28;20048;-66
2022/07/05 01:15:03;;;;;;;18.58;7.40;;;;;;;13.09;100.00;101954.88;5052484;28;20074;-66
2022/07/05 01:17:29;;;;;;;19.33;7.63;;;;;;;13.01;100.00;101948.59;5052202;28;20025;-65
2022/07/05 01:19:55;;;;;;;19.77;7.82;;;;;;;13.01;100.00;101956.56;5052272;28;20029;-66
2022/07/05 01:22:23;;;;;;;18.92;7.63;;;;;;;12.90;100.00;101952.03;5052306;28;20139;-67
2022/07/05 01:24:50;;;;;;;19.60;7.45;;;;;;;12.89;100.00;101959.97;5052248;28;20017;-65
2022/07/05 01:27:17;;;;;;;19.15;7.38;;;;;;;12.90;100.00;101962.63;5052389;28;20035;-66
2022/07/05 01:29:43;;;;;;;18.50;7.53;;;;;;;12.94;100.00;101955.59;5052160;28;20029;-65
2022/07/05 01:32:08;;;;;;;20.10;7.70;;;;;;;12.98;100.00;101949.47;5052326;28;20067;-67
2022/07/05 01:34:37;;;;;;;19.15;7.80;;;;;;;13.00;100.00;101957.44;5052519;28;20036;-65
2022/07/05 01:37:03;;;;;;;20.33;7.50;;;;;;;13.00;100.00;101954.78;5048668;28;20021;-66
2022/07/05 01:39:30;;;;;;;19.48;7.47;;;;;;;13.01;100.00;101961.88;5052022;28;20451;-66
2022/07/05 01:41:55;;;;;;;18.63;7.20;;;;;;;13.05;100.00;101958.41;5052414;28;20104;-66
2022/07/05 01:44:21;;;;;;;18.95;7.45;;;;;;;12.94;100.00;101957.38;5052117;28;20479;-66
2022/07/05 01:46:54;;;;;;;19.75;8.00;;;;;;;12.83;100.00;101959.88;5052051;28;20021;-67
2022/07/05 01:49:21;;;;;;;18.30;7.60;;;;;;;12.78;100.00;101962.47;5052468;28;20036;-65
2022/07/05 01:52:01;;;;;;;18.92;7.65;;;;;;;12.76;100.00;101958.91;5052030;28;20464;-67
2022/07/05 01:54:27;;;;;;;18.95;7.35;;;;;;;12.74;100.00;101955.34;5051853;28;20033;-66
2022/07/05 01:56:53;;;;;;;19.10;7.40;;;;;;;12.70;100.00;101956.19;5052102;28;20025;-66
2022/07/05 01:59:18;;;;;;;18.48;7.55;;;;;;;12.82;100.00;101952.81;5052163;28;20033;-66
2022/07/05 02:01:43;;;;;;;19.70;7.70;;;;;;;12.80;100.00;101955.44;5051888;28;20032;-67
2022/07/05 02:04:10;;;;;;;19.38;7.95;;;;;;;12.68;100.00;101953.53;5052206;28;20040;-66
2022/07/05 02:06:36;;;;;;;18.95;7.75;;;;;;;12.58;100.00;101948.06;5052333;28;20033;-66
2022/07/05 02:09:04;;;;;;;19.58;7.97;;;;;;;12.64;100.00;101949.03;5051895;28;20463;-66
2022/07/05 02:11:29;;;;;;;20.42;8.30;;;;;;;12.67;100.00;101940.25;5051853;28;20029;-65
2022/07/05 02:13:54;;;;;;;19.45;7.93;;;;;;;12.69;100.00;101935.84;5052003;28;20032;-65
2022/07/05 02:16:27;;;;;;;19.35;8.20;;;;;;;12.58;100.00;101945.41;5052023;28;20123;-65
2022/07/05 02:18:53;;;;;;;19.75;7.60;;;;;;;12.47;100.00;101950.56;5051862;28;20533;-66
2022/07/05 02:21:18;;;;;;;19.23;8.18;;;;;;;12.36;100.00;101945.09;5053122;28;20033;-67
2022/07/05 02:23:44;;;;;;;19.35;8.45;;;;;;;12.27;100.00;101947.63;5062694;28;20103;-65
2022/07/05 02:26:09;;;;;;;19.35;8.13;;;;;;;12.20;100.00;101947.53;5066269;28;20032;-67
2022/07/05 02:28:35;;;;;;;19.40;8.73;;;;;;;12.17;100.00;101949.22;5066502;28;20067;-66
2022/07/05 02:31:00;;;;;;;19.38;7.90;;;;;;;12.12;100.00;101943.88;5062322;28;20021;-68
2022/07/05 02:33:25;;;;;;;20.02;8.57;;;;;;;12.26;100.00;101949.41;5054657;28;20090;-68
2022/07/05 02:35:51;;;;;;;20.10;8.23;;;;;;;12.26;100.00;101943.19;5055652;28;20025;-67
2022/07/05 02:38:16;;;;;;;19.55;8.18;;;;;;;12.34;100.00;101949.50;5055173;28;20032;-66
2022/07/05 02:40:41;;;;;;;19.85;8.63;;;;;;;12.28;100.00;101949.41;5055475;28;20472;-65
2022/07/05 02:43:07;;;;;;;19.98;8.45;;;;;;;12.35;100.00;101946.88;5055824;28;20060;-65
2022/07/05 02:45:32;;;;;;;19.13;8.20;;;;;;;12.36;100.00;101943.34;5055069;28;20027;-66
2022/07/05 02:47:57;;;;;;;20.08;8.02;;;;;;;12.29;100.00;101952.09;5055176;28;20048;-70
2022/07/05 02:50:23;;;;;;;19.33;8.07;;;;;;;12.29;100.00;101957.38;5055171;28;20075;-71
2022/07/05 02:52:48;;;;;;;20.85;8.00;;;;;;;12.13;100.00;101963.31;5057032;28;20032;-65
2022/07/05 02:55:13;;;;;;;19.33;8.15;;;;;;;12.10;100.00;101964.16;5059328;28;20045;-66
2022/07/05 02:57:39;;;;;;;19.58;8.23;;;;;;;12.06;100.00;101964.06;5064378;28;20483;-65
2022/07/05 03:00:06;;;;;;;19.17;8.60;;;;;;;12.09;100.00;101965.03;5060080;28;20032;-65
2022/07/05 03:02:31;;;;;;;21.45;8.88;;;;;;;12.14;100.00;101973.03;5049613;28;20480;-67
2022/07/05 03:04:57;;;;;;;19.77;8.77;;;;;;;12.18;100.00;101969.59;5054606;28;20155;-64
2022/07/05 03:07:22;;;;;;;20.90;9.35;;;;;;;12.10;100.00;101966.81;5054798;28;20112;-65
2022/07/05 03:09:48;;;;;;;21.80;9.20;;;;;;;12.08;100.00;101967.66;5054871;28;20070;-66
2022/07/05 03:12:13;;;;;;;20.50;8.85;;;;;;;12.01;100.00;101979.91;5054571;28;20063;-66
2022/07/05 03:14:38;;;;;;;19.83;8.60;;;;;;;11.92;100.00;101980.59;5054431;28;20040;-66
2022/07/05 03:17:03;;;;;;;20.58;8.93;;;;;;;11.81;100.00;101980.44;5054543;28;20035;-64
2022/07/05 03:19:29;;;;;;;19.65;8.65;;;;;;;11.71;100.00;101972.28;5054247;28;20040;-66
2022/07/05 03:21:54;;;;;;;20.80;8.73;;;;;;;11.67;100.00;101980.19;5054476;28;20021;-65
2022/07/05 03:24:19;;;;;;;19.90;8.90;;;;;;;11.72;100.00;101984.69;5054418;28;20021;-65
2022/07/05 03:26:45;;;;;;;19.75;8.43;;;;;;;11.64;100.00;101989.84;5054540;28;20403;-65
2022/07/05 03:29:10;;;;;;;20.67;9.13;;;;;;;11.63;100.00;101994.22;5054686;28;20021;-66
2022/07/05 03:31:36;;;;;;;20.52;8.88;;;;;;;11.66;100.00;101990.75;5054510;28;20052;-64
2022/07/05 03:34:01;;;;;;;20.30;8.30;;;;;;;11.72;100.00;101980.25;5053961;28;20041;-65
2022/07/05 03:36:27;;;;;;;19.70;8.73;;;;;;;11.66;100.00;101982.81;5053337;28;20029;-67
2022/07/05 03:38:52;;;;;;;20.40;8.73;;;;;;;11.69;100.00;101988.16;5054359;28;20375;-66
2022/07/05 03:41:17;;;;;;;20.10;9.35;;;;;;;11.73;100.00;101992.66;5054199;28;20399;-68
2022/07/05 03:43:43;;;;;;;20.52;9.10;;;;;;;11.75;100.00;101988.28;5054136;28;20441;-66
2022/07/05 03:46:08;;;;;;;20.10;8.80;;;;;;;11.77;100.00;101999.78;5054325;28;20048;-66
2022/07/05 03:48:34;;;;;;;20.98;9.20;;;;;;;11.84;100.00;101991.09;5053804;28;20029;-66
2022/07/05 03:50:59;;;;;;;20.70;9.30;;;;;;;11.93;100.00;101986.81;5054033;28;20030;-69
2022/07/05 03:53:25;;;;;;;21.42;9.88;;;;;;;12.02;100.00;101994.94;5053572;28;20063;-65
2022/07/05 03:55:50;;;;;;;21.00;9.85;;;;;;;11.99;100.00;101989.59;5054098;28;20051;-66
2022/07/05 03:58:15;;;;;;;22.15;9.73;;;;;;;11.95;100.00;101998.34;5053655;28;20373;-66
2022/07/05 04:00:41;;;;;;;21.88;9.88;;;;;;;11.95;100.00;102003.66;5053531;28;20048;-66
2022/07/05 04:03:06;;;;;;;20.65;9.73;;;;;;;11.97;100.00;101999.25;5053811;28;20407;-68
2022/07/05 04:05:31;;;;;;;21.70;10.10;;;;;;;12.14;100.00;101995.13;5052573;28;20029;-65
2022/07/05 04:07:57;;;;;;;21.45;10.15;;;;;;;12.27;100.00;101998.88;5053360;28;20032;-66
2022/07/05 04:10:23;;;;;;;22.88;10.43;;;;;;;12.35;100.00;102012.28;5053698;28;20017;-67
2022/07/05 04:12:48;;;;;;;21.98;10.50;;;;;;;12.40;100.00;102007.03;5053635;28;20040;-67
2022/07/05 04:15:14;;;;;;;21.98;10.05;;;;;;;12.52;100.00;102005.47;5053388;28;20475;-66
2022/07/05 04:17:53;;;;;;;21.52;10.27;;;;;;;12.70;100.00;102014.56;5053472;28;20048;-66
2022/07/05 04:20:21;;;;;;;20.60;9.68;;;;;;;12.80;100.00;102008.50;5053649;28;20056;-67
2022/07/05 04:22:46;;;;;;;20.83;9.73;;;;;;;12.87;100.00;102015.69;5053257;28;20025;-64
2022/07/05 04:25:17;;;;;;;21.80;10.05;;;;;;;12.95;100.00;102015.78;5053408;28;20055;-64
2022/07/05 04:27:48;;;;;;;23.33;10.48;;;;;;;13.04;100.00;102013.22;5053405;28;20096;-64
2022/07/05 04:30:14;;;;;;;23.23;10.32;;;;;;;13.14;100.00;102008.94;5053273;28;20380;-64
2022/07/05 04:32:40;;;;;;;21.90;9.95;;;;;;;13.23;100.00;102006.38;5053132;28;20055;-64
2022/07/05 04:35:05;;;;;;;21.23;9.65;;;;;;;13.29;100.00;102007.34;5053307;28;20029;-64
2022/07/05 04:37:30;;;;;;;20.52;9.43;;;;;;;13.32;100.00;102005.59;5052866;28;20388;-64
2022/07/05 04:39:56;;;;;;;21.33;9.65;;;;;;;13.41;100.00;102002.19;5052919;28;20064;-64
2022/07/05 04:42:21;;;;;;;21.63;10.20;;;;;;;13.43;100.00;102011.94;5053109;28;20060;-64
2022/07/05 04:44:46;;;;;;;19.70;9.40;;;;;;;13.45;100.00;102005.78;5052752;28;20059;-64
2022/07/05 04:47:12;;;;;;;21.48;10.18;;;;;;;13.52;100.00;102005.84;5052790;28;20032;-64
2022/07/05 04:49:37;;;;;;;22.67;10.35;;;;;;;13.60;100.00;102013.88;5052647;28;20029;-64
2022/07/05 04:52:03;;;;;;;21.92;10.40;;;;;;;13.66;100.00;102013.06;5052940;28;20029;-64
2022/07/05 04:54:28;;;;;;;21.63;10.45;;;;;;;13.77;100.00;102012.31;5052621;28;20496;-64
2022/07/05 04:56:53;;;;;;;21.67;11.32;;;;;;;13.73;100.00;101997.22;5052718;28;20060;-64
2022/07/05 04:59:19;;;;;;;21.73;10.70;;;;;;;13.75;100.00;102002.53;5052852;28;20025;-63
2022/07/05 05:01:44;;;;;;;20.75;10.27;;;;;;;13.83;100.00;102005.28;5053316;28;20057;-64
2022/07/05 05:04:09;;;;;;;22.17;10.52;;;;;;;13.85;100.00;102008.81;5052434;28;20029;-66
2022/07/05 05:06:35;;;;;;;23.15;11.85;;;;;;;13.77;100.00;102016.72;5052451;28;20029;-66
2022/07/05 05:09:00;;;;;;;22.90;11.68;;;;;;;13.88;100.00;102004.44;5052577;28;20032;-66
2022/07/05 05:11:25;;;;;;;23.00;12.13;;;;;;;14.00;100.00;102013.41;5053961;28;20025;-67
2022/07/05 05:13:50;;;;;;;23.20;12.25;;;;;;;14.24;100.00;102015.34;5053723;28;20029;-66
2022/07/05 05:16:16;;;;;;;22.63;11.63;;;;;;;14.46;100.00;102011.09;5057372;28;20080;-67
2022/07/05 05:18:41;;;;;;;24.02;12.35;;;;;;;14.53;100.00;102020.00;5055803;28;20025;-67
2022/07/05 05:21:07;;;;;;;22.60;12.40;;;;;;;14.63;100.00;102012.13;5052323;28;20506;-67
2022/07/05 05:23:32;;;;;;;23.00;12.57;;;;;;;14.69;100.00;102015.69;5048296;28;20056;-67
2022/07/05 05:25:57;;;;;;;24.00;13.10;;;;;;;14.81;100.00;102010.47;5048074;28;20406;-67
2022/07/05 05:28:23;;;;;;;23.00;12.63;;;;;;;14.93;100.00;102022.94;5050606;28;20082;-67
2022/07/05 05:30:48;;;;;;;24.13;12.90;;;;;;;15.06;100.00;102026.56;5050736;28;20021;-63
2022/07/05 05:33:13;;;;;;;23.38;13.23;;;;;;;15.09;100.00;102038.09;5050307;28;20029;-65
2022/07/05 05:35:39;;;;;;;23.75;13.05;;;;;;;15.22;100.00;102035.47;5050372;28;20463;-64
2022/07/05 05:38:04;;;;;;;23.85;13.18;;;;;;;15.37;100.00;102032.00;5050351;28;20095;-64
2022/07/05 05:40:30;;;;;;;23.65;12.43;;;;;;;15.57;100.00;102040.94;5046672;28;20029;-65
2022/07/05 05:42:56;;;;;;;25.02;13.63;;;;;;;15.63;100.00;102045.38;5050643;28;20067;-65
2022/07/05 05:45:21;;;;;;;24.65;13.18;;;;;;;15.62;100.00;102055.13;5050637;28;20066;-64
2022/07/05 05:47:52;;;;;;;25.67;13.63;;;;;;;15.59;100.00;102047.13;5050381;28;20029;-64
2022/07/05 05:50:22;;;;;;;24.15;12.63;;;;;;;15.53;100.00;102049.78;5049864;28;20025;-64
2022/07/05 05:52:48;;;;;;;25.42;12.65;;;;;;;15.63;100.00;102051.59;5050038;28;20027;-64
2022/07/05 05:55:13;;;;;;;23.27;12.27;;;;;;;15.74;100.00;102050.72;5050040;28;20470;-64
2022/07/05 05:57:39;;;;;;;23.73;12.55;;;;;;;15.80;100.00;102056.09;5050216;28;20083;-64
2022/07/05 06:00:05;;;;;;;25.35;12.70;;;;;;;15.81;100.00;102060.56;5053562;28;20047;-65
2022/07/05 06:02:30;;;;;;;24.05;12.45;;;;;;;15.76;100.00;102056.97;5053593;28;20502;-65
2022/07/05 06:04:57;;;;;;;23.10;12.57;;;;;;;15.67;100.00;102061.38;5053958;28;20132;-65
2022/07/05 06:07:22;;;;;;;24.02;12.73;;;;;;;15.68;100.00;102065.84;5054014;28;20559;-64
2022/07/05 06:09:47;;;;;;;22.92;12.02;;;;;;;15.80;100.00;102057.00;5054001;28;20041;-65
2022/07/05 06:12:14;;;;;;;23.77;12.10;;;;;;;15.89;100.00;102063.22;5054008;28;20033;-64
2022/07/05 06:14:39;;;;;;;22.23;11.63;;;;;;;15.85;100.00;102065.00;5053821;28;20436;-65
2022/07/05 06:17:04;;;;;;;22.85;11.65;;;;;;;15.88;100.00;102066.81;5054120;28;20057;-64
2022/07/05 06:19:29;;;;;;;23.02;11.93;;;;;;;15.92;100.00;102063.25;5053785;28;20073;-65
2022/07/05 06:21:55;;;;;;;24.50;12.32;;;;;;;15.99;100.00;102065.94;5053441;28;20104;-64
2022/07/05 06:24:20;;;;;;;22.40;11.40;;;;;;;16.11;100.00;102069.50;5053598;28;20036;-64
2022/07/05 06:26:45;;;;;;;22.90;11.40;;;;;;;16.21;100.00;102073.94;5053301;28;20025;-65
2022/07/05 06:29:11;;;;;;;22.98;10.88;;;;;;;16.20;100.00;102073.03;5053399;28;20646;-65
2022/07/05 06:31:36;;;;;;;21.42;10.68;;;;;;;16.28;100.00;102065.06;5053554;28;20032;-65
2022/07/05 06:34:01;;;;;;;22.33;10.73;;;;;;;16.44;100.00;102078.38;5053441;28;20028;-64
2022/07/05 06:36:27;;;;;;;22.13;10.73;;;;;;;16.55;100.00;102071.25;5053421;28;20025;-65
2022/07/05 06:38:52;;;;;;;22.65;11.15;;;;;;;16.65;100.00;102075.69;5053823;28;20063;-65
2022/07/05 06:41:17;;;;;;;22.92;11.32;;;;;;;16.69;100.00;102074.81;5053240;28;20052;-64
2022/07/05 06:43:42;;;;;;;22.95;10.77;;;;;;;16.69;100.00;102079.25;5052445;28;20123;-64
2022/07/05 06:46:08;;;;;;;22.25;10.65;;;;;;;16.55;100.00;102077.47;5053219;28;20028;-64
2022/07/05 06:48:33;;;;;;;22.23;10.95;;;;;;;16.58;100.00;102087.25;5053097;28;20103;-64
2022/07/05 06:50:58;;;;;;;23.38;10.90;;;;;;;16.74;100.00;102083.69;5053323;28;20091;-64
2022/07/05 06:53:24;;;;;;;22.33;11.95;;;;;;;16.71;100.00;102077.47;5052352;28;20028;-64
2022/07/05 06:55:50;;;;;;;23.55;11.65;;;;;;;16.86;100.00;102084.56;5052873;28;20045;-64
2022/07/05 06:58:16;;;;;;;22.83;12.38;;;;;;;16.88;100.00;102086.38;5052302;28;20392;-69
2022/07/05 07:00:43;;;;;;;24.00;12.68;;;;;;;16.75;100.00;102081.91;5052054;28;20036;-66
2022/07/05 07:03:08;;;;;;;24.50;12.73;;;;;;;16.59;100.00;102089.06;5052470;28;20395;-68
2022/07/05 07:05:33;;;;;;;22.75;11.73;;;;;;;16.54;100.00;102085.47;5052655;28;20025;-69
2022/07/05 07:10:43;;;;;;;24.25;12.43;;;;;;;17.08;100.00;102074.72;5049702;28;20071;-67
2022/07/05 07:13:08;;;;;;;22.40;10.60;;;;;;;17.56;100.00;102079.88;5052700;28;20060;-67
2022/07/05 07:15:33;;;;;;;21.77;8.75;;;;;;;17.67;100.00;102091.41;5053062;28;20090;-67
2022/07/05 07:17:59;;;;;;;22.65;9.52;;;;;;;18.03;100.00;102080.53;5053128;28;20071;-68
2022/07/05 07:20:24;;;;;;;21.15;8.45;;;;;;;18.12;100.00;102092.03;5052616;28;20035;-68
2022/07/05 07:22:50;;;;;;;21.08;8.50;;;;;;;18.13;100.00;102084.91;5049694;28;20066;-64
2022/07/05 07:25:16;;;;;;;20.95;8.60;;;;;;;18.01;100.00;102082.31;5047271;28;20048;-64
2022/07/05 07:27:50;;;;;;;20.70;8.02;;;;;;;18.01;100.00;102083.19;5053156;28;20028;-64
2022/07/05 07:30:17;;;;;;;19.23;7.95;;;;;;;18.05;100.00;102092.97;5053368;28;20717;-65
2022/07/05 07:32:44;;;;;;;22.02;8.82;;;;;;;18.14;100.00;102092.03;5052972;28;20029;-64
2022/07/05 07:35:09;;;;;;;20.77;8.55;;;;;;;18.43;100.00;102094.47;5054364;28;20025;-67
2022/07/05 07:37:35;;;;;;;22.33;9.57;;;;;;;18.82;100.00;102095.00;5054268;28;20540;-64
2022/07/05 07:40:02;;;;;;;23.67;9.15;;;;;;;18.82;100.00;102095.00;5054163;28;20029;-65
2022/07/05 07:42:28;;;;;;;22.83;8.70;;;;;;;18.89;100.00;102103.91;5054065;28;20480;-65
2022/07/05 07:44:53;;;;;;;22.77;9.30;;;;;;;18.93;100.00;102102.97;5054550;28;20033;-64
2022/07/05 07:47:19;;;;;;;21.48;8.75;;;;;;;18.89;100.00;102095.88;5050400;28;20074;-66
2022/07/05 07:49:44;;;;;;;21.30;8.07;;;;;;;18.95;100.00;102098.47;5052341;28;20028;-66
2022/07/05 07:52:10;;;;;;;21.75;8.48;;;;;;;19.11;100.00;102096.50;5052045;28;20359;-66
2022/07/05 07:54:35;;;;;;;21.42;8.50;;;;;;;19.33;100.00;102096.25;5051868;28;20514;-66
2022/07/05 07:57:01;;;;;;;20.70;7.82;;;;;;;19.45;100.00;102106.81;5051628;28;20476;-66
2022/07/05 07:59:27;;;;;;;21.10;7.40;;;;;;;19.32;100.00;102098.06;5052250;28;20033;-66
2022/07/05 08:01:52;;;;;;;20.88;7.38;;;;;;;19.22;100.00;102098.16;5051854;28;20563;-66
2022/07/05 08:04:17;;;;;;;19.85;6.55;;;;;;;19.12;100.00;102108.09;5051900;28;20033;-64
2022/07/05 08:06:44;;;;;;;21.13;7.03;;;;;;;19.27;100.00;102113.28;5051271;28;20028;-65
2022/07/05 08:09:10;;;;;;;20.83;6.90;;;;;;;19.21;100.00;102107.09;5051906;28;20037;-64
2022/07/05 08:11:35;;;;;;;21.73;7.97;;;;;;;19.27;100.00;102101.69;5051778;28;20051;-69
2022/07/05 08:14:00;;;;;;;22.02;8.15;;;;;;;19.22;100.00;102107.13;5051820;28;20021;-67
2022/07/05 08:16:26;;;;;;;23.05;9.05;;;;;;;19.36;100.00;102108.75;5051171;28;20035;-66
2022/07/05 08:21:37;;;;;;;23.77;9.70;;;;;;;19.73;100.00;102116.28;5049800;28;20140;-67
2022/07/05 08:24:04;;;;;;;23.98;10.13;;;;;;;19.69;100.00;102119.00;5051629;28;20029;-65
2022/07/05 08:26:32;;;;;;;22.95;10.50;;;;;;;19.87;100.00;102113.47;5051931;28;20040;-68
2022/07/05 08:29:01;;;;;;;22.98;10.43;;;;;;;20.10;100.00;102122.03;5050451;28;20380;-67
2022/07/05 08:31:28;;;;;;;23.95;11.10;;;;;;;20.12;100.00;102117.53;5052705;28;20036;-66
2022/07/05 08:33:54;;;;;;;26.20;12.02;;;;;;;19.92;100.00;102114.25;5051795;28;20079;-66
2022/07/05 08:36:19;;;;;;;24.40;12.30;;;;;;;20.13;100.00;102119.31;5051357;28;20024;-66
2022/07/05 08:38:44;;;;;;;25.27;12.35;;;;;;;20.16;100.00;102113.88;5051562;28;20082;-66
2022/07/05 08:41:11;;;;;;;25.95;12.85;;;;;;;20.19;100.00;102119.19;5049949;28;20033;-66
2022/07/05 08:43:45;;;;;;;24.83;12.32;;;;;;;20.27;100.00;102115.50;5051315;28;20032;-65
2022/07/05 08:46:11;;;;;;;24.83;11.57;;;;;;;20.42;100.00;102122.47;5049884;28;20056;-65
2022/07/05 08:48:47;;;;;;;24.98;12.00;;;;;;;20.26;100.00;102111.97;5051016;28;20033;-64
2022/07/05 08:51:16;;;;;;;23.42;11.90;;;;;;;20.23;100.00;102105.72;5051036;28;20055;-64
2022/07/05 08:53:42;;;;;;;23.75;11.35;;;;;;;20.31;100.00;102111.88;5050659;28;20059;-64
2022/07/05 08:56:09;;;;;;;23.08;10.82;;;;;;;20.31;100.00;102115.44;5053004;28;20024;-64
2022/07/05 08:58:35;;;;;;;22.33;11.20;;;;;;;20.36;100.00;102110.00;5052756;28;20498;-65
2022/07/05 09:01:01;;;;;;;25.10;11.27;;;;;;;20.58;100.00;102106.97;5048956;28;20041;-65
2022/07/05 09:03:32;;;;;;;24.40;11.18;;;;;;;20.53;100.00;102109.72;5052683;28;20534;-64
2022/07/05 09:06:00;;;;;;;23.25;10.75;;;;;;;20.98;100.00;102100.88;5052662;28;20021;-66
2022/07/05 09:08:26;;;;;;;26.55;10.85;;;;;;;21.28;97.15;102103.88;5053101;28;20120;-65
2022/07/05 09:10:51;;;;;;;19.25;7.00;;;;;;;21.74;86.83;102102.88;5052536;28;20043;-66
2022/07/05 09:13:17;;;;;;;20.90;7.50;;;;;;;21.59;84.38;102106.81;5052531;28;20033;-65
2022/07/05 09:15:42;;;;;;;20.60;7.70;;;;;;;21.50;87.04;102110.56;5052587;28;20091;-64
2022/07/05 09:18:09;;;;;;;21.30;7.43;;;;;;;21.70;86.06;102117.38;5052385;28;20052;-65
2022/07/05 09:20:35;;;;;;;22.42;9.30;;;;;;;21.61;86.27;102118.44;5052217;28;20029;-65
2022/07/05 09:23:00;;;;;;;22.13;9.10;;;;;;;21.73;84.04;102117.28;5048629;28;20027;-63
2022/07/05 09:25:31;;;;;;;20.33;7.97;;;;;;;21.57;82.88;102114.94;5052531;28;20029;-64
2022/07/05 09:27:59;;;;;;;19.25;8.00;;;;;;;21.35;83.55;102122.53;5052521;28;20033;-67
2022/07/05 09:30:28;;;;;;;21.77;9.32;;;;;;;21.14;88.34;102110.41;5052403;28;20021;-66
2022/07/05 09:33:10;;;;;;;23.55;9.45;;;;;;;21.68;86.91;102113.81;5052465;28;20371;-65
2022/07/05 09:35:37;;;;;;;;;;;;;;;22.12;85.38;102111.91;5053777;28;20040;-64
2022/07/05 09:38:03;;;;;;;22.05;9.50;;;;;;;22.56;78.43;102112.63;5057733;28;19956;-64
2022/07/05 09:40:31;;;;;;;21.25;9.00;;;;;;;22.97;73.77;102115.13;5059508;28;20024;-64
2022/07/05 09:43:15;;;;;;;21.23;9.15;;;;;;;22.85;77.67;102110.97;5058472;28;20036;-65
2022/07/05 09:45:53;;;;;;;22.23;10.10;;;;;;;22.66;77.69;102115.97;5054197;28;20356;-64
2022/07/05 09:48:18;;;;;;;17.67;6.78;;;;;;;22.90;67.30;102100.94;5056306;28;20120;-65
2022/07/05 09:50:44;;;;;;;18.77;6.40;;;;;;;23.45;65.22;102101.19;5056208;28;20119;-65
2022/07/05 09:53:11;;;;;;;21.10;8.20;;;;;;;23.27;66.26;102097.25;5056767;28;20029;-65
2022/07/05 09:55:37;;;;;;;18.88;7.60;;;;;;;22.94;66.05;102105.31;5056193;28;20044;-65
2022/07/05 09:58:03;;;;;;;19.33;8.30;;;;;;;22.95;61.93;102096.31;5056316;28;20024;-66
2022/07/05 10:00:29;;;;;;;19.90;7.80;;;;;;;23.00;62.70;102095.31;5055993;28;20032;-66
2022/07/05 10:03:02;;;;;;;20.35;8.27;;;;;;;23.07;64.57;102095.06;5055891;28;20029;-64
2022/07/05 10:05:32;;;;;;;20.40;8.57;;;;;;;22.86;64.73;102093.84;5055828;28;20029;-65
2022/07/05 10:07:59;;;;;;;19.10;7.20;;;;;;;22.36;62.28;102096.09;5056079;28;20032;-65
2022/07/05 10:10:27;;;;;;;19.73;8.50;;;;;;;22.12;67.73;102093.06;5055764;28;20020;-64
2022/07/05 10:12:56;;;;;;;19.73;7.80;;;;;;;22.03;65.65;102093.25;5055882;28;20029;-65
2022/07/05 10:15:42;;;;;;;19.35;7.90;;;;;;;21.94;67.94;102099.75;5055765;28;20460;-65
2022/07/05 10:18:11;;;;;;;20.05;8.50;;;;;;;21.78;69.73;102099.22;5052657;28;20021;-64
2022/07/05 10:20:37;;;;;;;18.85;7.70;;;;;;;21.91;70.17;102108.78;5055610;28;20048;-65
2022/07/05 10:23:06;;;;;;;20.08;8.10;;;;;;;21.87;69.42;102104.41;5054361;28;20033;-65
2022/07/05 10:25:32;;;;;;;18.88;7.95;;;;;;;22.10;71.29;102111.03;5050352;28;20879;-66
2022/07/05 10:27:58;;;;;;;19.98;7.95;;;;;;;24.32;65.61;102112.88;5053733;28;20025;-69
2022/07/05 10:30:25;;;;;;;20.02;8.40;;;;;;;26.47;52.03;102109.38;5053518;28;20029;-68
2022/07/05 10:32:51;;;;;;;19.42;7.70;;;;;;;26.67;51.79;102106.69;5053844;28;20036;-66
2022/07/05 10:35:17;;;;;;;19.17;7.63;;;;;;;26.57;51.65;102106.19;5050777;28;20025;-68
2022/07/05 10:37:43;;;;;;;19.48;7.32;;;;;;;26.13;51.86;102106.25;5053074;28;20391;-67
2022/07/05 10:40:09;;;;;;;19.20;6.80;;;;;;;25.53;53.13;102101.38;5052900;28;20115;-66
2022/07/05 10:42:42;;;;;;;18.77;7.10;;;;;;;24.82;55.70;102103.13;5053632;28;20907;-67
2022/07/05 10:45:29;;;;;;;18.60;6.90;;;;;;;25.48;54.73;102099.81;5052632;28;20166;-66
2022/07/05 10:48:10;;;;;;;16.70;5.60;;;;;;;28.85;39.98;102102.63;5052940;28;20055;-69
2022/07/05 10:50:54;;;;;;;16.95;5.68;;;;;;;31.39;35.07;102101.56;5053206;28;20032;-68
2022/07/05 10:53:25;;;;;;;16.77;5.00;;;;;;;32.35;31.28;102106.25;5053278;28;20357;-67
2022/07/05 10:56:14;;;;;;;16.95;4.72;;;;;;;32.52;32.48;102113.28;5054572;28;20547;-67
2022/07/05 10:58:41;;;;;;;20.00;4.60;;;;;;;31.46;29.93;102102.94;5051697;28;20033;-66
2022/07/05 11:01:12;;;;;;;15.63;4.60;;;;;;;29.19;34.62;102103.50;5054910;28;20033;-65
2022/07/05 11:03:57;;;;;;;13.45;4.43;;;;;;;27.46;35.26;102101.38;5051645;28;20056;-66
2022/07/05 11:06:28;;;;;;;15.75;4.10;;;;;;;26.48;38.19;102105.72;5050589;28;20048;-69
2022/07/05 11:08:59;;;;;;;13.13;3.90;;;;;;;25.68;39.83;102099.03;5052478;28;20083;-67
2022/07/05 11:11:39;;;;;;;14.15;3.85;;;;;;;25.37;39.45;102097.53;5052821;28;20037;-70
2022/07/05 11:14:25;;;;;;;14.60;3.78;;;;;;;24.88;42.46;102105.59;5046394;28;20408;-66
2022/07/05 11:17:13;;;;;;;13.10;3.53;;;;;;;24.75;41.55;102109.69;5050952;28;20409;-67